createdAt,value
2023-04-23T00:01:19.094Z,74.35
2023-04-23T00:03:49.994Z,74.76
2023-04-23T00:06:18.886Z,74.35
2023-04-23T00:08:48.534Z,74.55
2023-04-23T00:11:18.233Z,75.05
2023-04-23T00:13:47.448Z,74.92
2023-04-23T00:16:16.331Z,74.61
2023-04-23T00:18:44.166Z,74.18
2023-04-23T00:21:12.037Z,74.52
2023-04-23T00:23:40.613Z,74.98
2023-04-23T00:26:08.459Z,74.94
2023-04-23T00:28:38.007Z,74.74
2023-04-23T00:31:05.898Z,75.12
2023-04-23T00:33:33.805Z,74.98
2023-04-23T00:36:01.653Z,75.42
2023-04-23T00:38:29.662Z,75.76
2023-04-23T00:40:57.522Z,76.31
2023-04-23T00:43:25.424Z,75.88
2023-04-23T00:45:54.915Z,75.53
2023-04-23T00:48:23.465Z,75.91
2023-04-23T00:50:59.509Z,75.69
2023-04-23T00:53:27.664Z,76.00
2023-04-23T00:55:55.794Z,76.53
2023-04-23T00:58:24.000Z,76.48
2023-04-23T01:00:52.534Z,76.48
2023-04-23T01:03:22.851Z,76.58
2023-04-23T01:05:51.682Z,76.65
2023-04-23T01:08:24.428Z,76.89
2023-04-23T01:10:53.401Z,76.78
2023-04-23T01:13:22.254Z,76.95
2023-04-23T01:15:50.718Z,77.84
2023-04-23T01:18:20.039Z,77.87
2023-04-23T01:20:49.586Z,77.67
2023-04-23T01:23:18.947Z,77.53
2023-04-23T01:25:47.704Z,77.78
2023-04-23T01:28:15.781Z,78.35
2023-04-23T01:30:44.783Z,78.31
2023-04-23T01:33:12.779Z,78.59
2023-04-23T01:35:41.872Z,78.85
2023-04-23T01:38:12.069Z,78.61
2023-04-23T01:40:41.747Z,79.32
2023-04-23T01:43:11.085Z,79.02
2023-04-23T01:45:39.152Z,79.74
2023-04-23T01:48:07.160Z,79.64
2023-04-23T01:50:36.191Z,80.02
2023-04-23T01:53:04.104Z,80.11
2023-04-23T01:55:32.971Z,80.61
2023-04-23T01:58:02.165Z,80.75
2023-04-23T02:00:30.051Z,80.78
2023-04-23T02:02:58.226Z,81.10
2023-04-23T02:05:26.819Z,81.17
2023-04-23T02:07:57.011Z,82.07
2023-04-23T02:10:25.800Z,81.83
2023-04-23T02:12:53.657Z,81.93
2023-04-23T02:15:22.920Z,81.75
2023-04-23T02:17:52.363Z,82.52
2023-04-23T02:20:21.821Z,83.03
2023-04-23T02:22:51.585Z,83.09
2023-04-23T02:25:21.949Z,82.34
2023-04-23T02:27:50.671Z,82.99
2023-04-23T02:30:18.537Z,84.22
2023-04-23T02:32:48.018Z,85.18
2023-04-23T02:35:15.989Z,84.94
2023-04-23T02:37:43.822Z,85.45
2023-04-23T02:40:13.075Z,84.94
2023-04-23T02:42:43.230Z,85.22
2023-04-23T02:45:12.566Z,85.29
2023-04-23T02:47:40.596Z,85.14
2023-04-23T02:50:10.702Z,86.56
2023-04-23T02:52:38.564Z,87.67
2023-04-23T02:55:08.420Z,87.32
2023-04-23T02:57:36.772Z,87.23
2023-04-23T03:00:07.382Z,86.55
2023-04-23T03:02:41.022Z,87.64
2023-04-23T03:05:11.186Z,87.69
2023-04-23T03:07:39.330Z,88.44
2023-04-23T03:10:08.381Z,88.99
2023-04-23T03:12:36.767Z,88.44
2023-04-23T03:15:04.980Z,88.41
2023-04-23T03:17:35.180Z,87.91
2023-04-23T03:20:04.965Z,88.95
2023-04-23T03:22:34.470Z,89.06
2023-04-23T03:25:02.573Z,89.28
2023-04-23T03:27:30.454Z,89.29
2023-04-23T03:29:58.603Z,90.48
2023-04-23T03:32:26.584Z,89.42
2023-04-23T03:34:54.502Z,89.65
2023-04-23T03:37:23.575Z,89.72
2023-04-23T03:39:53.180Z,90.02
2023-04-23T03:42:21.610Z,89.03
2023-04-23T03:44:50.570Z,88.53
2023-04-23T03:47:18.659Z,87.63
2023-04-23T03:49:46.690Z,88.13
2023-04-23T03:52:14.868Z,87.34
2023-04-23T03:54:43.434Z,87.36
2023-04-23T03:57:19.567Z,87.96
2023-04-23T03:59:56.537Z,88.38
2023-04-23T04:02:26.067Z,89.21
2023-04-23T04:04:55.243Z,89.47
2023-04-23T04:07:25.990Z,89.99
2023-04-23T04:09:57.140Z,89.51
2023-04-23T04:12:28.514Z,89.47
2023-04-23T04:14:56.411Z,90.28
2023-04-23T04:17:24.357Z,90.68
2023-04-23T04:19:52.321Z,89.96
2023-04-23T04:22:20.635Z,90.94
2023-04-23T04:24:48.744Z,90.43
2023-04-23T04:27:16.999Z,91.14
2023-04-23T04:29:46.205Z,91.41
2023-04-23T04:32:14.705Z,90.91
2023-04-23T04:34:43.070Z,90.82
2023-04-23T04:37:11.651Z,91.13
2023-04-23T04:39:40.077Z,92.07
2023-04-23T04:42:07.993Z,91.54
2023-04-23T04:44:37.540Z,92.32
2023-04-23T04:47:08.089Z,91.71
2023-04-23T04:49:36.243Z,91.90
2023-04-23T04:52:04.236Z,91.86
2023-04-23T04:54:32.195Z,91.81
2023-04-23T04:57:00.115Z,91.65
2023-04-23T04:59:28.091Z,91.93
2023-04-23T05:01:56.093Z,91.19
2023-04-23T05:04:25.362Z,91.22
2023-04-23T05:06:53.257Z,91.22
2023-04-23T05:09:21.125Z,91.21
2023-04-23T05:11:49.496Z,91.56
2023-04-23T05:14:17.314Z,91.02
2023-04-23T05:16:45.627Z,91.26
2023-04-23T05:19:13.544Z,90.50
2023-04-23T05:21:43.264Z,91.21
2023-04-23T05:24:11.360Z,90.66
2023-04-23T05:26:39.296Z,90.25
2023-04-23T05:29:07.322Z,90.13
2023-04-23T05:31:35.378Z,90.67
2023-04-23T05:34:03.292Z,90.34
2023-04-23T05:36:31.327Z,90.82
2023-04-23T05:39:00.592Z,90.37
2023-04-23T05:41:28.706Z,89.37
2023-04-23T05:43:56.613Z,88.51
2023-04-23T05:46:24.538Z,89.75
2023-04-23T05:48:53.648Z,89.91
2023-04-23T05:51:21.781Z,88.92
2023-04-23T05:53:49.963Z,88.04
2023-04-23T05:56:19.170Z,87.02
2023-04-23T05:58:47.604Z,88.23
2023-04-23T06:01:15.748Z,87.59
2023-04-23T06:03:45.540Z,86.84
2023-04-23T06:06:13.782Z,87.00
2023-04-23T06:08:41.683Z,86.01
2023-04-23T06:11:09.627Z,86.45
2023-04-23T06:13:43.540Z,86.01
2023-04-23T06:16:11.769Z,85.36
2023-04-23T06:18:40.220Z,85.04
2023-04-23T06:21:08.208Z,84.98
2023-04-23T06:23:36.848Z,84.98
2023-04-23T06:26:05.802Z,84.79
2023-04-23T06:28:33.902Z,84.42
2023-04-23T06:31:29.518Z,83.93
2023-04-23T06:33:57.600Z,83.26
2023-04-23T06:36:25.551Z,83.88
2023-04-23T06:38:53.588Z,83.00
2023-04-23T06:41:21.848Z,82.42
2023-04-23T06:44:01.312Z,81.61
2023-04-23T06:46:34.906Z,81.95
2023-04-23T06:49:02.851Z,81.67
2023-04-23T06:51:32.066Z,82.20
2023-04-23T06:54:00.128Z,81.55
2023-04-23T06:56:28.129Z,81.70
2023-04-23T06:58:56.232Z,81.60
2023-04-23T07:01:24.320Z,80.14
2023-04-23T07:03:54.604Z,79.52
2023-04-23T07:06:22.700Z,79.20
2023-04-23T07:08:50.737Z,80.33
2023-04-23T07:11:18.590Z,80.72
2023-04-23T07:13:46.724Z,78.42
2023-04-23T07:16:14.606Z,79.76
2023-04-23T07:18:42.431Z,78.15
2023-04-23T07:21:11.795Z,78.96
2023-04-23T07:23:39.693Z,78.02
2023-04-23T07:26:07.781Z,79.39
2023-04-23T07:28:35.835Z,78.31
2023-04-23T07:31:04.138Z,78.47
2023-04-23T07:33:32.397Z,77.55
2023-04-23T07:36:00.286Z,77.14
2023-04-23T07:38:29.725Z,76.55
2023-04-23T07:40:58.053Z,76.64
2023-04-23T07:43:26.129Z,76.36
2023-04-23T07:45:54.010Z,76.46
2023-04-23T07:48:21.904Z,74.56
2023-04-23T07:50:49.785Z,74.15
2023-04-23T07:53:17.895Z,75.57
2023-04-23T07:55:47.118Z,74.85
2023-04-23T07:58:15.160Z,74.57
2023-04-23T08:00:43.139Z,74.40
2023-04-23T08:03:11.104Z,72.61
2023-04-23T08:05:41.270Z,73.06
2023-04-23T08:08:09.250Z,72.44
2023-04-23T08:10:37.104Z,72.89
2023-04-23T08:13:07.488Z,71.87
2023-04-23T08:15:35.544Z,71.69
2023-04-23T08:18:04.175Z,71.82
2023-04-23T08:20:32.748Z,72.35
2023-04-23T08:23:00.753Z,71.68
2023-04-23T08:25:28.553Z,71.22
2023-04-23T08:27:56.458Z,71.96
2023-04-23T08:30:26.203Z,71.49
2023-04-23T08:32:54.884Z,70.84
2023-04-23T08:35:23.327Z,70.78
2023-04-23T08:37:51.244Z,69.99
2023-04-23T08:40:19.092Z,70.24
2023-04-23T08:42:51.732Z,69.86
2023-04-23T08:45:19.900Z,67.44
2023-04-23T08:47:49.265Z,65.95
2023-04-23T08:50:19.746Z,66.52
2023-04-23T08:52:51.463Z,65.37
2023-04-23T08:55:20.462Z,65.26
2023-04-23T08:57:49.697Z,65.51
2023-04-23T09:00:19.753Z,64.30
2023-04-23T09:02:50.460Z,63.26
2023-04-23T09:05:18.750Z,62.16
2023-04-23T09:07:46.787Z,62.35
2023-04-23T09:10:17.885Z,60.68
2023-04-23T09:12:48.020Z,59.19
2023-04-23T09:15:16.013Z,61.33
2023-04-23T09:17:47.217Z,59.97
2023-04-23T09:20:17.106Z,60.11
2023-04-23T09:22:47.740Z,59.71
2023-04-23T09:25:19.618Z,61.18
2023-04-23T09:27:48.118Z,61.77
2023-04-23T09:30:17.436Z,60.53
2023-04-23T09:32:46.985Z,61.90
2023-04-23T09:35:19.838Z,61.14
2023-04-23T09:37:49.603Z,60.69
2023-04-23T09:40:20.054Z,59.49
2023-04-23T09:42:50.026Z,60.96
2023-04-23T09:45:18.178Z,59.00
2023-04-23T09:47:51.775Z,58.30
2023-04-23T09:50:22.311Z,56.63
2023-04-23T09:52:56.064Z,55.48
2023-04-23T09:55:29.601Z,55.24
2023-04-23T09:57:57.647Z,55.32
2023-04-23T10:00:29.249Z,53.71
2023-04-23T10:02:57.335Z,53.65
2023-04-23T10:05:33.941Z,54.37
2023-04-23T10:08:10.314Z,51.43
2023-04-23T10:10:54.569Z,50.80
2023-04-23T10:13:28.510Z,51.87
2023-04-23T10:16:07.257Z,53.02
2023-04-23T10:18:42.639Z,52.50
2023-04-23T10:21:13.551Z,53.31
2023-04-23T10:23:44.238Z,54.81
2023-04-23T10:26:16.043Z,53.60
2023-04-23T10:28:47.925Z,54.00
2023-04-23T10:31:16.323Z,49.91
2023-04-23T10:33:55.916Z,51.79
2023-04-23T10:36:29.116Z,51.55
2023-04-23T10:39:00.775Z,51.55
2023-04-23T10:41:36.339Z,53.35
2023-04-23T10:44:04.735Z,53.08
2023-04-23T10:46:35.350Z,51.34
2023-04-23T10:49:14.314Z,52.61
2023-04-23T10:54:15.910Z,53.01
2023-04-23T10:56:44.543Z,52.25
2023-04-23T10:59:21.869Z,52.21
2023-04-23T11:01:51.470Z,52.13
2023-04-23T11:04:24.521Z,52.75
2023-04-23T11:06:56.289Z,53.45
2023-04-23T11:09:31.990Z,52.41
2023-04-23T11:12:01.501Z,52.28
2023-04-23T11:14:37.171Z,51.52
2023-04-23T11:17:06.749Z,50.31
2023-04-23T11:19:37.706Z,51.37
2023-04-23T11:22:08.496Z,50.95
2023-04-23T11:24:42.415Z,49.99
2023-04-23T11:27:11.928Z,50.25
2023-04-23T11:29:41.569Z,51.06
2023-04-23T11:32:12.952Z,49.80
2023-04-23T11:34:43.539Z,49.62
2023-04-23T11:37:13.809Z,50.10
2023-04-23T11:39:44.252Z,50.07
2023-04-23T11:42:13.182Z,49.93
2023-04-23T11:44:41.769Z,50.94
2023-04-23T11:47:11.095Z,50.63
2023-04-23T11:49:39.603Z,52.44
2023-04-23T11:52:08.114Z,51.52
2023-04-23T11:54:37.358Z,51.84
2023-04-23T11:57:05.935Z,50.58
2023-04-23T11:59:33.891Z,51.55
2023-04-23T12:02:01.778Z,51.25
2023-04-23T12:04:30.764Z,51.53
2023-04-23T12:07:00.003Z,50.41
2023-04-23T12:09:29.551Z,50.46
2023-04-23T12:11:59.401Z,50.33
2023-04-23T12:14:30.049Z,50.72
2023-04-23T12:16:59.632Z,51.97
2023-04-23T12:19:29.372Z,51.52
2023-04-23T12:21:58.964Z,51.26
2023-04-23T12:24:29.532Z,50.27
2023-04-23T12:27:01.012Z,50.30
2023-04-23T12:29:31.078Z,51.12
2023-04-23T12:32:00.269Z,50.02
2023-04-23T12:34:28.245Z,50.77
2023-04-23T12:36:57.299Z,50.37
2023-04-23T12:39:33.810Z,49.51
2023-04-23T12:42:05.115Z,48.22
2023-04-23T12:44:34.620Z,48.73
2023-04-23T12:47:04.885Z,49.38
2023-04-23T12:49:34.008Z,49.31
2023-04-23T12:52:03.260Z,48.79
2023-04-23T12:54:32.427Z,49.66
2023-04-23T12:57:01.987Z,49.60
2023-04-23T12:59:31.684Z,48.88
2023-04-23T13:02:02.018Z,48.53
2023-04-23T13:04:30.289Z,48.00
2023-04-23T13:06:58.450Z,49.60
2023-04-23T13:09:27.983Z,48.37
2023-04-23T13:11:56.817Z,48.71
2023-04-23T13:14:24.716Z,50.01
2023-04-23T13:16:53.910Z,48.42
2023-04-23T13:19:21.805Z,47.39
2023-04-23T13:21:49.640Z,46.44
2023-04-23T13:24:17.507Z,46.41
2023-04-23T13:26:45.527Z,47.88
2023-04-23T13:29:13.467Z,47.28
2023-04-23T13:31:41.349Z,47.41
2023-04-23T13:34:10.633Z,47.13
2023-04-23T13:36:41.233Z,46.54
2023-04-23T13:39:09.955Z,47.08
2023-04-23T13:41:37.823Z,47.94
2023-04-23T13:44:05.662Z,45.16
2023-04-23T13:46:33.736Z,42.83
2023-04-23T13:49:02.132Z,42.10
2023-04-23T13:51:34.648Z,42.94
2023-04-23T13:54:03.952Z,41.48
2023-04-23T13:56:32.251Z,40.57
2023-04-23T14:01:33.135Z,40.36
2023-04-23T14:04:01.098Z,41.95
2023-04-23T14:06:29.030Z,41.72
2023-04-23T14:08:58.198Z,40.00
2023-04-23T14:11:26.105Z,41.05
2023-04-23T14:13:53.944Z,40.94
2023-04-23T14:16:21.824Z,42.12
2023-04-23T14:18:49.722Z,42.34
2023-04-23T14:21:18.124Z,41.16
2023-04-23T14:23:51.514Z,41.12
2023-04-23T14:26:44.813Z,41.76
2023-04-23T14:29:24.266Z,41.67
2023-04-23T14:31:52.251Z,41.53
2023-04-23T14:34:20.100Z,41.41
2023-04-23T14:36:49.233Z,41.53
2023-04-23T14:39:17.616Z,42.46
2023-04-23T14:41:46.918Z,42.71
2023-04-23T14:44:14.746Z,42.06
2023-04-23T14:46:42.563Z,42.21
2023-04-23T14:49:10.536Z,42.48
2023-04-23T14:51:38.414Z,42.76
2023-04-23T14:54:07.186Z,42.76
2023-04-23T14:56:35.167Z,42.84
2023-04-23T14:59:04.877Z,42.80
2023-04-23T15:01:32.763Z,43.73
2023-04-23T15:04:00.774Z,43.40
2023-04-23T15:06:28.717Z,44.27
2023-04-23T15:08:56.562Z,45.24
2023-04-23T15:11:24.419Z,44.46
2023-04-23T15:13:58.361Z,45.20
2023-04-23T15:16:47.471Z,45.61
2023-04-23T15:19:17.787Z,48.65
2023-04-23T15:21:46.118Z,48.46
2023-04-23T15:24:14.075Z,49.40
2023-04-23T15:26:42.171Z,52.64
2023-04-23T15:29:10.628Z,57.34
2023-04-23T15:31:40.110Z,62.68
2023-04-23T15:34:09.159Z,61.26
2023-04-23T15:36:38.201Z,60.13
2023-04-23T15:39:07.052Z,59.02
2023-04-23T15:41:37.495Z,58.21
2023-04-23T15:44:10.781Z,57.99
2023-04-23T15:46:40.201Z,58.10
2023-04-23T15:49:08.190Z,58.40
2023-04-23T15:51:36.157Z,58.28
2023-04-23T15:54:05.913Z,58.22
2023-04-23T15:56:33.755Z,57.64
2023-04-23T15:59:01.584Z,59.70
2023-04-23T16:01:29.661Z,58.87
2023-04-23T16:06:29.744Z,58.56
2023-04-23T16:08:57.662Z,60.28
2023-04-23T16:11:27.623Z,59.92
2023-04-23T16:13:57.024Z,61.98
2023-04-23T16:16:25.043Z,62.87
2023-04-23T16:18:53.475Z,65.10
2023-04-23T16:21:23.256Z,70.27
2023-04-23T16:23:51.303Z,71.04
2023-04-23T16:26:19.208Z,73.75
2023-04-23T16:28:51.986Z,71.84
2023-04-23T16:31:29.805Z,75.56
2023-04-23T16:33:57.679Z,81.19
2023-04-23T16:36:27.085Z,81.39
2023-04-23T16:38:54.945Z,81.67
2023-04-23T16:41:22.879Z,81.79
2023-04-23T16:43:50.784Z,80.93
2023-04-23T16:46:18.878Z,79.46
2023-04-23T16:48:47.173Z,80.74
2023-04-23T16:51:15.162Z,81.25
2023-04-23T16:53:44.337Z,82.48
2023-04-23T16:56:12.372Z,83.83
2023-04-23T16:58:40.254Z,83.10
2023-04-23T17:01:08.167Z,86.17
2023-04-23T17:03:37.099Z,85.68
2023-04-23T17:06:11.201Z,82.99
2023-04-23T17:08:39.419Z,85.39
2023-04-23T17:11:09.002Z,83.60
2023-04-23T17:13:37.336Z,83.72
2023-04-23T17:16:05.126Z,85.17
2023-04-23T17:18:32.991Z,85.82
2023-04-23T17:21:01.127Z,83.53
2023-04-23T17:23:29.050Z,85.05
2023-04-23T17:25:57.031Z,83.74
2023-04-23T17:28:26.276Z,83.91
2023-04-23T17:30:55.884Z,83.75
2023-04-23T17:33:24.812Z,84.19
2023-04-23T17:35:55.235Z,84.75
2023-04-23T17:38:24.658Z,85.40
2023-04-23T17:40:53.772Z,85.88
2023-04-23T17:43:22.349Z,86.05
2023-04-23T17:45:51.754Z,86.98
2023-04-23T17:48:21.414Z,85.19
2023-04-23T17:50:51.238Z,85.60
2023-04-23T17:53:19.329Z,87.49
2023-04-23T17:55:47.236Z,87.92
2023-04-23T17:58:15.173Z,88.34
2023-04-23T18:00:44.123Z,88.18
2023-04-23T18:03:16.669Z,86.19
2023-04-23T18:05:45.047Z,86.87
2023-04-23T18:08:12.903Z,86.74
2023-04-23T18:10:41.086Z,85.34
2023-04-23T18:13:11.567Z,85.44
2023-04-23T18:15:40.971Z,84.58
2023-04-23T18:18:08.978Z,86.79
2023-04-23T18:20:38.980Z,87.00
2023-04-23T18:23:08.056Z,86.95
2023-04-23T18:25:36.033Z,88.09
2023-04-23T18:28:03.885Z,88.51
2023-04-23T18:30:31.919Z,89.19
2023-04-23T18:33:07.744Z,89.21
2023-04-23T18:35:35.764Z,89.40
2023-04-23T18:38:11.509Z,90.46
2023-04-23T18:40:39.403Z,89.97
2023-04-23T18:43:07.335Z,90.59
2023-04-23T18:45:35.776Z,90.44
2023-04-23T18:48:25.448Z,90.68
2023-04-23T18:50:57.817Z,90.87
2023-04-23T18:53:27.204Z,91.52
2023-04-23T18:55:55.090Z,89.87
2023-04-23T18:58:23.057Z,88.94
2023-04-23T19:00:50.862Z,89.52
2023-04-23T19:03:25.882Z,89.27
2023-04-23T19:05:54.934Z,89.77
2023-04-23T19:08:28.333Z,91.15
2023-04-23T19:10:58.187Z,90.18
2023-04-23T19:13:26.656Z,88.30
2023-04-23T19:15:54.953Z,89.91
2023-04-23T19:18:23.064Z,86.16
2023-04-23T19:20:51.079Z,85.60
2023-04-23T19:23:18.923Z,84.80
2023-04-23T19:25:46.911Z,83.87
2023-04-23T19:28:16.220Z,83.77
2023-04-23T19:30:44.190Z,82.08
2023-04-23T19:33:12.185Z,81.28
2023-04-23T19:35:40.499Z,82.47
2023-04-23T19:38:08.542Z,81.68
2023-04-23T19:40:36.395Z,82.19
2023-04-23T19:43:04.493Z,82.62
2023-04-23T19:45:34.207Z,82.16
2023-04-23T19:48:04.511Z,82.55
2023-04-23T19:50:32.571Z,82.54
2023-04-23T19:53:00.483Z,82.81
2023-04-23T19:55:28.639Z,83.01
2023-04-23T19:57:58.373Z,82.90
2023-04-23T20:00:29.849Z,82.93
2023-04-23T20:02:59.124Z,83.56
2023-04-23T20:05:27.859Z,83.99
2023-04-23T20:07:56.210Z,84.78
2023-04-23T20:10:29.087Z,85.20
2023-04-23T20:12:58.797Z,85.04
2023-04-23T20:15:27.114Z,84.73
2023-04-23T20:17:55.106Z,84.55
2023-04-23T20:20:25.665Z,83.68
2023-04-23T20:22:53.712Z,83.82
2023-04-23T20:25:25.533Z,83.43
2023-04-23T20:27:54.158Z,84.62
2023-04-23T20:30:21.980Z,84.76
2023-04-23T20:32:49.859Z,83.61
2023-04-23T20:35:17.797Z,84.01
2023-04-23T20:37:47.818Z,82.22
2023-04-23T20:40:15.699Z,83.64
2023-04-23T20:42:43.817Z,81.88
2023-04-23T20:45:14.283Z,82.96
2023-04-23T20:47:44.358Z,82.75
2023-04-23T20:50:12.495Z,81.38
2023-04-23T20:52:40.353Z,83.15
2023-04-23T20:55:10.684Z,82.57
2023-04-23T20:57:38.536Z,84.21
2023-04-23T21:00:11.792Z,83.08
2023-04-23T21:02:39.875Z,83.87
2023-04-23T21:05:08.936Z,83.53
2023-04-23T21:07:36.935Z,83.71
2023-04-23T21:10:04.932Z,83.57
2023-04-23T21:12:34.374Z,83.07
2023-04-23T21:15:02.456Z,83.79
2023-04-23T21:17:30.338Z,83.41
2023-04-23T21:19:58.242Z,84.83
2023-04-23T21:22:26.274Z,84.12
2023-04-23T21:24:54.170Z,83.95
2023-04-23T21:27:22.165Z,84.26
2023-04-23T21:29:52.442Z,83.46
2023-04-23T21:32:20.364Z,84.37
2023-04-23T21:34:48.208Z,84.22
2023-04-23T21:37:16.085Z,84.36
2023-04-23T21:39:44.186Z,84.15
2023-04-23T21:42:12.192Z,84.65
2023-04-23T21:44:40.776Z,84.13
2023-04-23T21:47:10.405Z,84.67
2023-04-23T21:49:38.286Z,85.16
2023-04-23T21:52:06.560Z,84.75
2023-04-23T21:54:34.337Z,87.06
2023-04-23T21:57:02.725Z,86.52
2023-04-23T21:59:30.953Z,86.72
2023-04-23T22:01:59.332Z,87.57
2023-04-23T22:04:29.367Z,87.16
2023-04-23T22:07:02.332Z,87.59
2023-04-23T22:09:30.277Z,88.33
2023-04-23T22:12:02.148Z,88.79
2023-04-23T22:14:30.744Z,88.62
2023-04-23T22:16:59.456Z,88.66
2023-04-23T22:19:29.296Z,87.98
2023-04-23T22:21:57.113Z,88.02
2023-04-23T22:24:25.214Z,87.85
2023-04-23T22:26:53.178Z,87.74
2023-04-23T22:29:21.951Z,87.56
2023-04-23T22:31:49.863Z,88.03
2023-04-23T22:34:19.341Z,88.13
2023-04-23T22:36:48.609Z,88.10
2023-04-23T22:39:16.473Z,89.04
2023-04-23T22:41:44.308Z,88.20
2023-04-23T22:44:12.192Z,88.88
2023-04-23T22:46:40.482Z,88.79
2023-04-23T22:49:11.050Z,87.80
2023-04-23T22:51:39.675Z,87.34
2023-04-23T22:54:08.986Z,87.63
2023-04-23T22:56:37.564Z,87.01
2023-04-23T22:59:05.999Z,87.44
2023-04-23T23:01:33.891Z,86.94
2023-04-23T23:04:01.915Z,86.66
2023-04-23T23:06:29.789Z,86.76
2023-04-23T23:08:57.953Z,85.83
2023-04-23T23:11:28.758Z,86.52
2023-04-23T23:13:57.279Z,87.46
2023-04-23T23:16:25.508Z,86.86
2023-04-23T23:18:53.898Z,87.44
2023-04-23T23:21:21.937Z,87.67
2023-04-23T23:23:49.933Z,87.23
2023-04-23T23:26:17.873Z,86.79
2023-04-23T23:28:47.199Z,88.29
2023-04-23T23:31:15.273Z,87.69
2023-04-23T23:33:43.155Z,87.62
2023-04-23T23:36:12.021Z,86.69
2023-04-23T23:38:39.845Z,86.51
2023-04-23T23:41:07.661Z,87.08
2023-04-23T23:43:35.454Z,86.65
2023-04-23T23:46:04.936Z,88.30
2023-04-23T23:48:32.894Z,86.68
2023-04-23T23:51:00.746Z,86.10
2023-04-23T23:53:28.652Z,86.59
2023-04-23T23:55:56.506Z,86.47
2023-04-23T23:58:24.280Z,86.09
